sensor_id;sensor_type;location;lat;lon;timestamp;pressure;altitude;pressure_sealevel;temperature;humidity
80124;BME280;69433;48.642;9.142;2023-06-24T00:00:16;97869.03;;;25.55;37.24
80124;BME280;69433;48.642;9.142;2023-06-24T00:02:44;97875.94;;;25.56;37.36
80124;BME280;69433;48.642;9.142;2023-06-24T00:05:10;97877.09;;;25.55;37.01
80124;BME280;69433;48.642;9.142;2023-06-24T00:07:36;97874.06;;;25.49;37.59
80124;BME280;69433;48.642;9.142;2023-06-24T00:10:09;97873.31;;;25.49;37.31
80124;BME280;69433;48.642;9.142;2023-06-24T00:12:34;97875.66;;;25.47;37.45
80124;BME280;69433;48.642;9.142;2023-06-24T00:15:00;97869.47;;;25.50;37.44
80124;BME280;69433;48.642;9.142;2023-06-24T00:17:25;97869.84;;;25.48;37.16
80124;BME280;69433;48.642;9.142;2023-06-24T00:19:53;97869.84;;;25.48;37.55
80124;BME280;69433;48.642;9.142;2023-06-24T00:22:20;97872.97;;;25.47;37.67
80124;BME280;69433;48.642;9.142;2023-06-24T00:24:45;97873.72;;;25.47;37.27
80124;BME280;69433;48.642;9.142;2023-06-24T00:27:10;97882.16;;;25.49;37.71
80124;BME280;69433;48.642;9.142;2023-06-24T00:29:35;97887.94;;;25.48;37.25
80124;BME280;69433;48.642;9.142;2023-06-24T00:32:01;97883.75;;;25.47;37.60
80124;BME280;69433;48.642;9.142;2023-06-24T00:34:26;97875.34;;;25.38;37.09
80124;BME280;69433;48.642;9.142;2023-06-24T00:36:51;97866.56;;;25.34;37.60
80124;BME280;69433;48.642;9.142;2023-06-24T00:39:17;97867.75;;;25.29;37.31
80124;BME280;69433;48.642;9.142;2023-06-24T00:41:42;97872.38;;;25.29;37.84
80124;BME280;69433;48.642;9.142;2023-06-24T00:44:08;97880.88;;;25.24;37.51
80124;BME280;69433;48.642;9.142;2023-06-24T00:46:34;97885.47;;;25.27;37.46
80124;BME280;69433;48.642;9.142;2023-06-24T00:49:00;97875.81;;;25.29;37.81
80124;BME280;69433;48.642;9.142;2023-06-24T00:51:28;97870.88;;;25.28;37.29
80124;BME280;69433;48.642;9.142;2023-06-24T00:53:57;97876.66;;;25.23;37.48
80124;BME280;69433;48.642;9.142;2023-06-24T00:56:27;97882.38;;;25.28;37.37
80124;BME280;69433;48.642;9.142;2023-06-24T00:58:54;97879.34;;;25.26;37.48
80124;BME280;69433;48.642;9.142;2023-06-24T01:01:20;97872.81;;;25.24;37.56
80124;BME280;69433;48.642;9.142;2023-06-24T01:03:45;97882.41;;;25.25;37.73
80124;BME280;69433;48.642;9.142;2023-06-24T01:06:11;97875.91;;;25.22;37.63
80124;BME280;69433;48.642;9.142;2023-06-24T01:08:38;97874.41;;;25.18;37.50
80124;BME280;69433;48.642;9.142;2023-06-24T01:11:03;97862.47;;;25.19;37.54
80124;BME280;69433;48.642;9.142;2023-06-24T01:13:29;97868.75;;;25.08;37.39
80124;BME280;69433;48.642;9.142;2023-06-24T01:15:54;97863.34;;;25.08;37.34
80124;BME280;69433;48.642;9.142;2023-06-24T01:18:36;97864.03;;;25.16;37.84
80124;BME280;69433;48.642;9.142;2023-06-24T01:27:57;97860.63;;;25.12;37.63
80124;BME280;69433;48.642;9.142;2023-06-24T01:30:17;97862.13;;;25.17;37.26
80124;BME280;69433;48.642;9.142;2023-06-24T01:32:51;97869.06;;;25.10;37.65
80124;BME280;69433;48.642;9.142;2023-06-24T01:35:23;97857.97;;;25.08;37.20
80124;BME280;69433;48.642;9.142;2023-06-24T01:37:51;97860.72;;;25.01;37.68
80124;BME280;69433;48.642;9.142;2023-06-24T01:40:27;97863.03;;;24.99;37.64
80124;BME280;69433;48.642;9.142;2023-06-24T01:42:54;97865.69;;;25.06;37.75
80124;BME280;69433;48.642;9.142;2023-06-24T01:45:25;97869.91;;;25.07;37.60
80124;BME280;69433;48.642;9.142;2023-06-24T01:47:56;97872.16;;;25.09;37.39
80124;BME280;69433;48.642;9.142;2023-06-24T01:50:25;97871.81;;;25.07;37.28
80124;BME280;69433;48.642;9.142;2023-06-24T01:52:52;97864.50;;;25.07;37.47
80124;BME280;69433;48.642;9.142;2023-06-24T01:55:19;97858.78;;;25.02;37.36
80124;BME280;69433;48.642;9.142;2023-06-24T01:57:48;97865.31;;;25.01;37.43
80124;BME280;69433;48.642;9.142;2023-06-24T02:00:15;97866.47;;;25.03;37.68
80124;BME280;69433;48.642;9.142;2023-06-24T02:02:42;97864.16;;;25.02;37.28
80124;BME280;69433;48.642;9.142;2023-06-24T02:05:09;97867.28;;;24.97;37.51
80124;BME280;69433;48.642;9.142;2023-06-24T02:07:35;97869.59;;;24.98;37.48
80124;BME280;69433;48.642;9.142;2023-06-24T02:10:02;97869.59;;;24.98;37.22
80124;BME280;69433;48.642;9.142;2023-06-24T02:12:28;97868.78;;;25.01;37.57
80124;BME280;69433;48.642;9.142;2023-06-24T02:14:55;97858.78;;;25.02;37.51
80124;BME280;69433;48.642;9.142;2023-06-24T02:17:24;97864.63;;;24.93;37.51
80124;BME280;69433;48.642;9.142;2023-06-24T02:19:50;97858.50;;;24.89;37.62
80124;BME280;69433;48.642;9.142;2023-06-24T02:22:17;97857.00;;;24.85;37.58
80124;BME280;69433;48.642;9.142;2023-06-24T02:24:43;97857.38;;;24.83;37.53
80124;BME280;69433;48.642;9.142;2023-06-24T02:27:10;97853.53;;;24.84;37.70
80124;BME280;69433;48.642;9.142;2023-06-24T02:29:37;97849.69;;;24.85;37.39
80124;BME280;69433;48.642;9.142;2023-06-24T02:32:03;97848.13;;;24.88;37.68
80124;BME280;69433;48.642;9.142;2023-06-24T02:34:28;97849.69;;;24.82;37.38
80124;BME280;69433;48.642;9.142;2023-06-24T02:36:54;97852.78;;;24.80;37.29
80124;BME280;69433;48.642;9.142;2023-06-24T02:39:19;97851.63;;;24.81;37.43
80124;BME280;69433;48.642;9.142;2023-06-24T02:41:45;97855.84;;;24.82;36.95
80124;BME280;69433;48.642;9.142;2023-06-24T02:44:12;97850.91;;;24.77;37.24
80124;BME280;69433;48.642;9.142;2023-06-24T02:46:39;97855.13;;;24.78;37.79
80124;BME280;69433;48.642;9.142;2023-06-24T02:49:05;97857.44;;;24.76;37.47
80124;BME280;69433;48.642;9.142;2023-06-24T02:51:31;97854.81;;;24.69;37.52
80124;BME280;69433;48.642;9.142;2023-06-24T02:53:57;97851.00;;;24.63;37.63
80124;BME280;69433;48.642;9.142;2023-06-24T02:56:24;97846.00;;;24.65;37.39
80124;BME280;69433;48.642;9.142;2023-06-24T02:58:50;97848.63;;;24.72;37.48
80124;BME280;69433;48.642;9.142;2023-06-24T03:01:18;97853.59;;;24.77;37.63
80124;BME280;69433;48.642;9.142;2023-06-24T03:03:44;97856.28;;;24.77;37.22
80124;BME280;69433;48.642;9.142;2023-06-24T03:06:14;97845.91;;;24.79;37.44
80124;BME280;69433;48.642;9.142;2023-06-24T03:08:43;97842.47;;;24.75;37.15
80124;BME280;69433;48.642;9.142;2023-06-24T03:11:12;97842.09;;;24.73;37.38
80124;BME280;69433;48.642;9.142;2023-06-24T03:13:38;97844.06;;;24.69;37.23
80124;BME280;69433;48.642;9.142;2023-06-24T03:16:03;97852.09;;;24.72;37.55
80124;BME280;69433;48.642;9.142;2023-06-24T03:18:29;97858.59;;;24.75;37.39
80124;BME280;69433;48.642;9.142;2023-06-24T03:20:54;97862.44;;;24.77;37.32
80124;BME280;69433;48.642;9.142;2023-06-24T03:23:19;97870.50;;;24.77;37.35
80124;BME280;69433;48.642;9.142;2023-06-24T03:25:45;97870.13;;;24.75;37.39
80124;BME280;69433;48.642;9.142;2023-06-24T03:28:10;97872.06;;;24.75;36.90
80124;BME280;69433;48.642;9.142;2023-06-24T03:30:35;97882.47;;;24.69;37.04
80124;BME280;69433;48.642;9.142;2023-06-24T03:33:03;97885.50;;;24.75;37.40
80124;BME280;69433;48.642;9.142;2023-06-24T03:35:28;97882.78;;;24.78;36.91
80124;BME280;69433;48.642;9.142;2023-06-24T03:37:55;97892.03;;;24.74;36.85
80124;BME280;69433;48.642;9.142;2023-06-24T03:40:20;97884.41;;;24.69;36.91
80124;BME280;69433;48.642;9.142;2023-06-24T03:42:45;97883.25;;;24.66;36.77
80124;BME280;69433;48.642;9.142;2023-06-24T03:45:11;97885.94;;;24.70;37.23
80124;BME280;69433;48.642;9.142;2023-06-24T03:47:36;97882.09;;;24.67;37.03
80124;BME280;69433;48.642;9.142;2023-06-24T03:50:02;97891.41;;;24.56;37.05
80124;BME280;69433;48.642;9.142;2023-06-24T03:52:28;97897.88;;;24.62;37.06
80124;BME280;69433;48.642;9.142;2023-06-24T03:54:53;97897.88;;;24.62;37.43
80124;BME280;69433;48.642;9.142;2023-06-24T03:57:18;97892.09;;;24.63;37.19
80124;BME280;69433;48.642;9.142;2023-06-24T03:59:44;97890.97;;;24.61;37.28
80124;BME280;69433;48.642;9.142;2023-06-24T04:02:09;97901.75;;;24.57;37.17
80124;BME280;69433;48.642;9.142;2023-06-24T04:04:35;97900.25;;;24.53;36.98
80124;BME280;69433;48.642;9.142;2023-06-24T04:07:00;97904.09;;;24.52;37.09
80124;BME280;69433;48.642;9.142;2023-06-24T04:09:26;97905.66;;;24.49;37.26
80124;BME280;69433;48.642;9.142;2023-06-24T04:11:51;97906.03;;;24.48;36.94
80124;BME280;69433;48.642;9.142;2023-06-24T04:14:16;97910.28;;;24.45;36.96
80124;BME280;69433;48.642;9.142;2023-06-24T04:16:42;97917.56;;;24.45;37.29
80124;BME280;69433;48.642;9.142;2023-06-24T04:19:07;97926.78;;;24.44;37.31
80124;BME280;69433;48.642;9.142;2023-06-24T04:21:33;97922.59;;;24.39;37.36
80124;BME280;69433;48.642;9.142;2023-06-24T04:23:58;97918.38;;;24.38;37.37
80124;BME280;69433;48.642;9.142;2023-06-24T04:26:23;97922.22;;;24.37;37.04
80124;BME280;69433;48.642;9.142;2023-06-24T04:28:49;97931.06;;;24.37;37.08
80124;BME280;69433;48.642;9.142;2023-06-24T04:31:22;97923.00;;;24.37;37.12
80124;BME280;69433;48.642;9.142;2023-06-24T04:33:47;97920.66;;;24.43;37.09
80124;BME280;69433;48.642;9.142;2023-06-24T04:36:12;97919.47;;;24.48;37.01
80124;BME280;69433;48.642;9.142;2023-06-24T04:38:38;97919.09;;;24.49;37.38
80124;BME280;69433;48.642;9.142;2023-06-24T04:41:03;97919.06;;;24.53;37.10
80124;BME280;69433;48.642;9.142;2023-06-24T04:43:29;97927.13;;;24.53;37.05
80124;BME280;69433;48.642;9.142;2023-06-24T04:45:54;97924.44;;;24.53;36.99
80124;BME280;69433;48.642;9.142;2023-06-24T04:48:23;97934.41;;;24.56;37.29
80124;BME280;69433;48.642;9.142;2023-06-24T04:50:49;97934.75;;;24.61;37.23
80124;BME280;69433;48.642;9.142;2023-06-24T04:53:14;97936.22;;;24.73;37.42
80124;BME280;69433;48.642;9.142;2023-06-24T04:55:40;97933.47;;;24.84;37.14
80124;BME280;69433;48.642;9.142;2023-06-24T04:58:05;97933.81;;;24.93;37.40
80124;BME280;69433;48.642;9.142;2023-06-24T05:00:31;97937.63;;;24.99;37.42
80124;BME280;69433;48.642;9.142;2023-06-24T05:02:56;97936.03;;;25.05;37.17
80124;BME280;69433;48.642;9.142;2023-06-24T05:05:21;97937.13;;;25.11;37.36
80124;BME280;69433;48.642;9.142;2023-06-24T05:07:46;97930.94;;;25.14;37.31
80124;BME280;69433;48.642;9.142;2023-06-24T05:10:12;97936.31;;;25.18;37.32
80124;BME280;69433;48.642;9.142;2023-06-24T05:12:37;97932.81;;;25.21;37.01
80124;BME280;69433;48.642;9.142;2023-06-24T05:15:03;97942.03;;;25.23;37.32
80124;BME280;69433;48.642;9.142;2023-06-24T05:17:28;97940.47;;;25.26;37.39
80124;BME280;69433;48.642;9.142;2023-06-24T05:19:53;97945.81;;;25.29;37.15
80124;BME280;69433;48.642;9.142;2023-06-24T05:22:19;97953.09;;;25.32;37.06
80124;BME280;69433;48.642;9.142;2023-06-24T05:24:44;97946.91;;;25.35;37.39
80124;BME280;69433;48.642;9.142;2023-06-24T05:27:09;97944.94;;;25.39;37.35
80124;BME280;69433;48.642;9.142;2023-06-24T05:29:34;97943.38;;;25.42;37.32
80124;BME280;69433;48.642;9.142;2023-06-24T05:32:00;97944.13;;;25.46;37.12
80124;BME280;69433;48.642;9.142;2023-06-24T05:34:28;97942.97;;;25.47;37.14
80124;BME280;69433;48.642;9.142;2023-06-24T05:36:53;97944.84;;;25.50;37.35
80124;BME280;69433;48.642;9.142;2023-06-24T05:39:20;97942.53;;;25.52;37.18
80124;BME280;69433;48.642;9.142;2023-06-24T05:41:45;97944.44;;;25.55;37.25
80124;BME280;69433;48.642;9.142;2023-06-24T05:44:11;97948.22;;;25.58;37.16
80124;BME280;69433;48.642;9.142;2023-06-24T05:46:36;97935.94;;;25.60;36.84
80124;BME280;69433;48.642;9.142;2023-06-24T05:49:02;97939.00;;;25.62;37.03
80124;BME280;69433;48.642;9.142;2023-06-24T05:51:28;97942.81;;;25.65;37.17
80124;BME280;69433;48.642;9.142;2023-06-24T05:53:53;97939.72;;;25.66;37.26
80124;BME280;69433;48.642;9.142;2023-06-24T05:56:20;97939.69;;;25.70;37.02
80124;BME280;69433;48.642;9.142;2023-06-24T05:58:46;97940.81;;;25.72;36.67
80124;BME280;69433;48.642;9.142;2023-06-24T06:01:11;97949.25;;;25.74;37.08
80124;BME280;69433;48.642;9.142;2023-06-24T06:03:37;97948.09;;;25.75;36.93
80124;BME280;69433;48.642;9.142;2023-06-24T06:06:02;97956.53;;;25.77;36.99
80124;BME280;69433;48.642;9.142;2023-06-24T06:08:28;97950.34;;;25.80;37.22
80124;BME280;69433;48.642;9.142;2023-06-24T06:10:53;97955.69;;;25.84;37.03
80124;BME280;69433;48.642;9.142;2023-06-24T06:13:18;97954.88;;;25.87;37.03
80124;BME280;69433;48.642;9.142;2023-06-24T06:15:44;97946.41;;;25.88;37.11
80124;BME280;69433;48.642;9.142;2023-06-24T06:18:09;97939.44;;;25.91;36.79
80124;BME280;69433;48.642;9.142;2023-06-24T06:20:34;97940.59;;;25.94;37.06
80124;BME280;69433;48.642;9.142;2023-06-24T06:23:00;97933.59;;;25.96;36.77
80124;BME280;69433;48.642;9.142;2023-06-24T06:25:25;97932.44;;;25.97;36.98
80124;BME280;69433;48.642;9.142;2023-06-24T06:27:50;97937.44;;;25.99;36.79
80124;BME280;69433;48.642;9.142;2023-06-24T06:30:16;97930.88;;;26.00;37.00
80124;BME280;69433;48.642;9.142;2023-06-24T06:32:41;97935.47;;;26.03;36.82
80124;BME280;69433;48.642;9.142;2023-06-24T06:35:07;97935.06;;;26.04;37.00
80124;BME280;69433;48.642;9.142;2023-06-24T06:37:32;97932.31;;;26.08;36.80
80124;BME280;69433;48.642;9.142;2023-06-24T06:39:57;97941.53;;;26.10;36.75
80124;BME280;69433;48.642;9.142;2023-06-24T06:42:23;97929.94;;;26.13;36.90
80124;BME280;69433;48.642;9.142;2023-06-24T06:44:48;97933.41;;;26.14;37.00
80124;BME280;69433;48.642;9.142;2023-06-24T06:47:13;97934.50;;;26.16;36.83
80124;BME280;69433;48.642;9.142;2023-06-24T06:49:38;97929.84;;;26.20;37.13
80124;BME280;69433;48.642;9.142;2023-06-24T06:52:05;97928.28;;;26.23;36.79
80124;BME280;69433;48.642;9.142;2023-06-24T06:54:30;97935.56;;;26.26;37.00
80124;BME280;69433;48.642;9.142;2023-06-24T06:57:03;97935.91;;;26.32;36.91
80124;BME280;69433;48.642;9.142;2023-06-24T06:59:31;97925.47;;;26.34;36.80
80124;BME280;69433;48.642;9.142;2023-06-24T07:01:56;97934.69;;;26.36;36.78
80124;BME280;69433;48.642;9.142;2023-06-24T07:04:22;97927.31;;;26.40;36.78
80124;BME280;69433;48.642;9.142;2023-06-24T07:06:47;97924.56;;;26.44;36.74
80124;BME280;69433;48.642;9.142;2023-06-24T07:09:13;97921.81;;;26.47;37.08
80124;BME280;69433;48.642;9.142;2023-06-24T07:11:38;97922.19;;;26.49;36.96
80124;BME280;69433;48.642;9.142;2023-06-24T07:14:03;97921.00;;;26.50;36.92
80124;BME280;69433;48.642;9.142;2023-06-24T07:16:29;97924.81;;;26.53;36.94
80124;BME280;69433;48.642;9.142;2023-06-24T07:18:56;97924.78;;;26.56;36.76
80124;BME280;69433;48.642;9.142;2023-06-24T07:21:21;97919.38;;;26.56;36.80
80124;BME280;69433;48.642;9.142;2023-06-24T07:23:47;97916.28;;;26.58;36.95
80124;BME280;69433;48.642;9.142;2023-06-24T07:26:12;97918.56;;;26.59;36.68
80124;BME280;69433;48.642;9.142;2023-06-24T07:28:38;97922.81;;;26.60;36.82
80124;BME280;69433;48.642;9.142;2023-06-24T07:31:03;97919.28;;;26.64;36.89
80124;BME280;69433;48.642;9.142;2023-06-24T07:33:28;97919.28;;;26.64;36.85
80124;BME280;69433;48.642;9.142;2023-06-24T07:35:55;97920.00;;;26.68;36.63
80124;BME280;69433;48.642;9.142;2023-06-24T07:38:20;97922.28;;;26.69;36.89
80124;BME280;69433;48.642;9.142;2023-06-24T07:40:46;97914.97;;;26.70;36.98
80124;BME280;69433;48.642;9.142;2023-06-24T07:43:11;97922.22;;;26.73;36.95
80124;BME280;69433;48.642;9.142;2023-06-24T07:45:36;97913.34;;;26.72;36.76
80124;BME280;69433;48.642;9.142;2023-06-24T07:48:02;97917.53;;;26.77;36.91
80124;BME280;69433;48.642;9.142;2023-06-24T07:50:27;97914.06;;;26.76;37.07
80124;BME280;69433;48.642;9.142;2023-06-24T07:52:52;97916.38;;;26.78;36.91
80124;BME280;69433;48.642;9.142;2023-06-24T07:55:18;97916.31;;;26.81;36.88
80124;BME280;69433;48.642;9.142;2023-06-24T07:57:46;97915.91;;;26.83;36.77
80124;BME280;69433;48.642;9.142;2023-06-24T08:00:12;97918.94;;;26.85;36.84
80124;BME280;69433;48.642;9.142;2023-06-24T08:02:38;97919.72;;;26.85;36.81
80124;BME280;69433;48.642;9.142;2023-06-24T08:05:03;97915.84;;;26.86;36.78
80124;BME280;69433;48.642;9.142;2023-06-24T08:07:29;97915.09;;;26.86;36.90
80124;BME280;69433;48.642;9.142;2023-06-24T08:09:55;97916.97;;;26.89;36.84
80124;BME280;69433;48.642;9.142;2023-06-24T08:12:20;97915.81;;;26.90;36.68
80124;BME280;69433;48.642;9.142;2023-06-24T08:14:45;97909.59;;;26.93;36.76
80124;BME280;69433;48.642;9.142;2023-06-24T08:17:11;97910.75;;;26.92;36.72
80124;BME280;69433;48.642;9.142;2023-06-24T08:19:36;97903.78;;;26.94;36.69
80124;BME280;69433;48.642;9.142;2023-06-24T08:22:01;97913.41;;;26.95;36.70
80124;BME280;69433;48.642;9.142;2023-06-24T08:24:27;97906.44;;;26.98;36.66
80124;BME280;69433;48.642;9.142;2023-06-24T08:26:52;97911.44;;;27.00;36.62
80124;BME280;69433;48.642;9.142;2023-06-24T08:29:18;97897.19;;;26.99;36.60
80124;BME280;69433;48.642;9.142;2023-06-24T08:31:44;97905.59;;;27.01;36.76
80124;BME280;69433;48.642;9.142;2023-06-24T08:34:09;97904.03;;;27.04;36.72
80124;BME280;69433;48.642;9.142;2023-06-24T08:36:34;97908.66;;;27.03;36.80
80124;BME280;69433;48.642;9.142;2023-06-24T08:39:01;97896.28;;;27.06;36.75
80124;BME280;69433;48.642;9.142;2023-06-24T08:41:26;97896.66;;;27.08;36.53
80124;BME280;69433;48.642;9.142;2023-06-24T08:43:53;97889.31;;;27.08;36.84
80124;BME280;69433;48.642;9.142;2023-06-24T08:46:24;97898.94;;;27.09;36.49
80124;BME280;69433;48.642;9.142;2023-06-24T08:49:02;97899.28;;;27.11;36.67
80124;BME280;69433;48.642;9.142;2023-06-24T08:51:35;97894.63;;;27.12;36.75
80124;BME280;69433;48.642;9.142;2023-06-24T08:54:04;97887.66;;;27.14;36.81
80124;BME280;69433;48.642;9.142;2023-06-24T08:56:32;97883.78;;;27.15;36.61
80124;BME280;69433;48.642;9.142;2023-06-24T08:58:58;97890.72;;;27.16;36.72
80124;BME280;69433;48.642;9.142;2023-06-24T09:01:24;97888.38;;;27.18;36.65
80124;BME280;69433;48.642;9.142;2023-06-24T09:03:51;97886.84;;;27.17;36.69
80124;BME280;69433;48.642;9.142;2023-06-24T09:06:16;97892.59;;;27.19;36.77
80124;BME280;69433;48.642;9.142;2023-06-24T09:08:52;97887.53;;;27.21;36.69
80124;BME280;69433;48.642;9.142;2023-06-24T09:11:22;97885.19;;;27.23;36.61
80124;BME280;69433;48.642;9.142;2023-06-24T09:13:47;97884.00;;;27.24;36.59
80124;BME280;69433;48.642;9.142;2023-06-24T09:16:13;97890.19;;;27.25;36.67
80124;BME280;69433;48.642;9.142;2023-06-24T09:18:39;97887.06;;;27.26;36.85
80124;BME280;69433;48.642;9.142;2023-06-24T09:21:05;97880.84;;;27.29;36.52
80124;BME280;69433;48.642;9.142;2023-06-24T09:23:37;97884.28;;;27.30;36.86
80124;BME280;69433;48.642;9.142;2023-06-24T09:26:02;97872.31;;;27.31;36.73
80124;BME280;69433;48.642;9.142;2023-06-24T09:28:27;97873.44;;;27.33;36.46
80124;BME280;69433;48.642;9.142;2023-06-24T09:31:06;97868.38;;;27.36;36.78
80124;BME280;69433;48.642;9.142;2023-06-24T09:33:32;97865.69;;;27.36;36.70
80124;BME280;69433;48.642;9.142;2023-06-24T09:35:57;97860.28;;;27.36;36.76
80124;BME280;69433;48.642;9.142;2023-06-24T09:38:36;97864.88;;;27.39;36.59
80124;BME280;69433;48.642;9.142;2023-06-24T09:41:03;97865.63;;;27.39;36.55
80124;BME280;69433;48.642;9.142;2023-06-24T09:43:35;97862.94;;;27.39;36.75
80124;BME280;69433;48.642;9.142;2023-06-24T09:46:10;97865.63;;;27.39;36.63
80124;BME280;69433;48.642;9.142;2023-06-24T09:48:35;97861.72;;;27.40;36.70
80124;BME280;69433;48.642;9.142;2023-06-24T09:51:03;97849.75;;;27.41;36.81
80124;BME280;69433;48.642;9.142;2023-06-24T09:53:34;97855.91;;;27.42;36.89
80124;BME280;69433;48.642;9.142;2023-06-24T09:56:01;97847.81;;;27.42;36.83
80124;BME280;69433;48.642;9.142;2023-06-24T09:58:32;97846.25;;;27.44;36.70
80124;BME280;69433;48.642;9.142;2023-06-24T10:01:01;97845.47;;;27.44;36.41
80124;BME280;69433;48.642;9.142;2023-06-24T10:03:27;97848.16;;;27.44;36.86
80124;BME280;69433;48.642;9.142;2023-06-24T10:05:53;97843.53;;;27.44;36.60
80124;BME280;69433;48.642;9.142;2023-06-24T10:08:20;97836.97;;;27.45;36.83
80124;BME280;69433;48.642;9.142;2023-06-24T10:10:46;97843.13;;;27.46;36.66
80124;BME280;69433;48.642;9.142;2023-06-24T10:13:11;97845.81;;;27.46;36.65
80124;BME280;69433;48.642;9.142;2023-06-24T10:15:37;97842.72;;;27.47;36.92
80124;BME280;69433;48.642;9.142;2023-06-24T10:18:02;97842.31;;;27.49;36.80
80124;BME280;69433;48.642;9.142;2023-06-24T10:20:28;97829.53;;;27.49;36.66
80124;BME280;69433;48.642;9.142;2023-06-24T10:22:54;97833.00;;;27.50;36.84
80124;BME280;69433;48.642;9.142;2023-06-24T10:25:20;97822.97;;;27.50;36.90
80124;BME280;69433;48.642;9.142;2023-06-24T10:27:53;97819.84;;;27.52;37.10
80124;BME280;69433;48.642;9.142;2023-06-24T10:30:19;97822.91;;;27.54;36.90
80124;BME280;69433;48.642;9.142;2023-06-24T10:32:51;97818.28;;;27.54;36.84
80124;BME280;69433;48.642;9.142;2023-06-24T10:37:57;97821.34;;;27.56;36.69
80124;BME280;69433;48.642;9.142;2023-06-24T10:40:54;97818.22;;;27.58;36.62
80124;BME280;69433;48.642;9.142;2023-06-24T10:45:52;97806.22;;;27.59;36.80
80124;BME280;69433;48.642;9.142;2023-06-24T10:48:18;97806.22;;;27.59;36.80
80124;BME280;69433;48.642;9.142;2023-06-24T10:50:48;97801.16;;;27.61;36.98
80124;BME280;69433;48.642;9.142;2023-06-24T10:53:17;97802.69;;;27.62;37.10
80124;BME280;69433;48.642;9.142;2023-06-24T10:55:45;97800.75;;;27.62;36.94
80124;BME280;69433;48.642;9.142;2023-06-24T10:58:13;97789.53;;;27.64;36.57
80124;BME280;69433;48.642;9.142;2023-06-24T11:00:40;97793.41;;;27.63;36.77
80124;BME280;69433;48.642;9.142;2023-06-24T11:03:10;97790.28;;;27.64;36.96
80124;BME280;69433;48.642;9.142;2023-06-24T11:05:40;97787.19;;;27.66;36.97
80124;BME280;69433;48.642;9.142;2023-06-24T11:08:06;97790.66;;;27.66;36.90
80124;BME280;69433;48.642;9.142;2023-06-24T11:10:45;97783.31;;;27.67;37.03
80124;BME280;69433;48.642;9.142;2023-06-24T11:13:11;97779.84;;;27.66;36.90
80124;BME280;69433;48.642;9.142;2023-06-24T11:15:41;97787.53;;;27.68;36.91
80124;BME280;69433;48.642;9.142;2023-06-24T11:18:10;97785.56;;;27.68;36.79
80124;BME280;69433;48.642;9.142;2023-06-24T11:20:39;97774.03;;;27.68;37.16
80124;BME280;69433;48.642;9.142;2023-06-24T11:23:08;97764.72;;;27.69;37.03
80124;BME280;69433;48.642;9.142;2023-06-24T11:25:39;97758.56;;;27.68;37.00
80124;BME280;69433;48.642;9.142;2023-06-24T11:28:05;97759.31;;;27.69;36.97
80124;BME280;69433;48.642;9.142;2023-06-24T11:30:34;97756.19;;;27.70;37.04
80124;BME280;69433;48.642;9.142;2023-06-24T11:32:59;97756.88;;;27.75;36.87
80124;BME280;69433;48.642;9.142;2023-06-24T11:35:24;97754.19;;;27.75;37.00
80124;BME280;69433;48.642;9.142;2023-06-24T11:37:50;97746.84;;;27.75;37.06
80124;BME280;69433;48.642;9.142;2023-06-24T11:40:18;97753.78;;;27.76;37.13
80124;BME280;69433;48.642;9.142;2023-06-24T11:42:44;97749.56;;;27.75;36.98
80124;BME280;69433;48.642;9.142;2023-06-24T11:45:11;97740.69;;;27.75;37.14
80124;BME280;69433;48.642;9.142;2023-06-24T11:47:38;97739.91;;;27.74;36.93
80124;BME280;69433;48.642;9.142;2023-06-24T11:50:05;97745.31;;;27.74;36.79
80124;BME280;69433;48.642;9.142;2023-06-24T11:52:48;97737.22;;;27.74;37.20
80124;BME280;69433;48.642;9.142;2023-06-24T11:55:22;97735.69;;;27.73;37.15
80124;BME280;69433;48.642;9.142;2023-06-24T11:57:54;97731.41;;;27.76;36.93
80124;BME280;69433;48.642;9.142;2023-06-24T12:00:42;97722.88;;;27.77;36.78
80124;BME280;69433;48.642;9.142;2023-06-24T12:03:10;97740.59;;;27.78;36.77
80124;BME280;69433;48.642;9.142;2023-06-24T12:05:37;97735.19;;;27.78;36.76
80124;BME280;69433;48.642;9.142;2023-06-24T12:08:06;97724.38;;;27.78;37.19
80124;BME280;69433;48.642;9.142;2023-06-24T12:10:32;97720.06;;;27.81;37.00
80124;BME280;69433;48.642;9.142;2023-06-24T12:12:59;97712.72;;;27.81;36.93
80124;BME280;69433;48.642;9.142;2023-06-24T12:15:26;97713.50;;;27.82;36.92
80124;BME280;69433;48.642;9.142;2023-06-24T12:17:51;97708.09;;;27.82;37.08
80124;BME280;69433;48.642;9.142;2023-06-24T12:20:17;97709.63;;;27.83;37.15
80124;BME280;69433;48.642;9.142;2023-06-24T12:22:44;97701.09;;;27.84;36.95
80124;BME280;69433;48.642;9.142;2023-06-24T12:25:09;97697.63;;;27.84;36.89
80124;BME280;69433;48.642;9.142;2023-06-24T12:27:35;97691.03;;;27.85;36.77
80124;BME280;69433;48.642;9.142;2023-06-24T12:30:00;97686.81;;;27.84;36.89
80124;BME280;69433;48.642;9.142;2023-06-24T12:32:29;97675.66;;;27.82;36.89
80124;BME280;69433;48.642;9.142;2023-06-24T12:34:54;97678.38;;;27.82;36.89
80124;BME280;69433;48.642;9.142;2023-06-24T12:37:19;97684.88;;;27.84;37.03
80124;BME280;69433;48.642;9.142;2023-06-24T12:39:45;97684.13;;;27.84;36.95
80124;BME280;69433;48.642;9.142;2023-06-24T12:42:10;97679.06;;;27.86;36.95
80124;BME280;69433;48.642;9.142;2023-06-24T12:44:36;97674.06;;;27.84;37.16
80124;BME280;69433;48.642;9.142;2023-06-24T12:47:01;97674.41;;;27.86;37.09
80124;BME280;69433;48.642;9.142;2023-06-24T12:49:27;97673.97;;;27.88;36.96
80124;BME280;69433;48.642;9.142;2023-06-24T12:51:53;97670.84;;;27.89;36.83
80124;BME280;69433;48.642;9.142;2023-06-24T12:54:18;97671.59;;;27.90;37.05
80124;BME280;69433;48.642;9.142;2023-06-24T12:56:43;97672.38;;;27.90;36.88
80124;BME280;69433;48.642;9.142;2023-06-24T12:59:09;97671.59;;;27.90;37.25
80124;BME280;69433;48.642;9.142;2023-06-24T13:01:34;97661.56;;;27.90;36.89
80124;BME280;69433;48.642;9.142;2023-06-24T13:03:59;97662.25;;;27.94;37.05
80124;BME280;69433;48.642;9.142;2023-06-24T13:06:24;97658.44;;;27.92;37.06
80124;BME280;69433;48.642;9.142;2023-06-24T13:08:50;97658.44;;;27.92;37.10